Time;durP1;ratioP1;P1;durP2;ratioP2;P2;SDS_P1;SDS_P2;PMS_P1;PMS_P2;Temp;Humidity;BMP_temperature;BMP_pressure;BME280_temperature;BME280_humidity;BME280_pressure;Samples;Min_cycle;Max_cycle;Signal;HPM_P1;HPM_P2
2022/12/11 00:01:59;;;;;;;0.45;0.45;;;-0.50;99.90;;;;;;4421345;32;20498;-66
2022/12/11 00:04:25;;;;;;;0.70;0.70;;;-0.60;99.90;;;;;;4408133;32;20093;-66
2022/12/11 00:06:51;;;;;;;0.43;0.43;;;-0.60;99.90;;;;;;4406154;32;20687;-66
2022/12/11 00:09:18;;;;;;;0.50;0.50;;;-0.60;99.90;;;;;;4422687;32;20065;-67
2022/12/11 00:11:44;;;;;;;0.60;0.60;;;-0.60;99.90;;;;;;4406684;32;20101;-66
2022/12/11 00:14:10;;;;;;;0.40;0.40;;;-0.60;99.90;;;;;;4421384;32;20093;-66
2022/12/11 00:16:35;;;;;;;0.65;0.65;;;-0.60;99.90;;;;;;4419804;32;20090;-66
2022/12/11 00:19:01;;;;;;;0.60;0.60;;;-0.50;99.90;;;;;;4422054;32;20089;-67
2022/12/11 00:21:26;;;;;;;0.40;0.40;;;-0.60;99.90;;;;;;4421094;32;20580;-66
2022/12/11 00:23:52;;;;;;;0.93;0.93;;;-0.60;99.90;;;;;;4419984;32;20526;-66
2022/12/11 00:26:17;;;;;;;0.50;0.50;;;-0.60;99.90;;;;;;4420909;32;20121;-67
2022/12/11 00:28:44;;;;;;;0.90;0.85;;;-0.60;99.90;;;;;;4417956;32;20074;-66
2022/12/11 00:31:13;;;;;;;0.50;0.50;;;-0.60;99.90;;;;;;4417499;32;20564;-67
2022/12/11 00:33:39;;;;;;;0.60;0.60;;;-0.70;99.90;;;;;;4396411;32;20090;-66
2022/12/11 00:36:11;;;;;;;0.40;0.40;;;-0.70;99.90;;;;;;4403704;32;20466;-66
2022/12/11 00:38:37;;;;;;;1.02;0.88;;;-0.80;99.90;;;;;;4414176;32;20112;-67
2022/12/11 00:41:02;;;;;;;5.45;1.50;;;-0.70;99.90;;;;;;4420296;32;20176;-66
2022/12/11 00:43:28;;;;;;;1.15;1.10;;;-0.70;99.90;;;;;;4420836;32;20073;-67
2022/12/11 00:45:53;;;;;;;0.47;0.47;;;-0.70;99.90;;;;;;4422927;32;20467;-66
2022/12/11 00:48:19;;;;;;;0.50;0.50;;;-0.60;99.90;;;;;;4424854;32;20113;-66
2022/12/11 00:50:45;;;;;;;0.50;0.50;;;-0.60;99.90;;;;;;4425876;32;20081;-67
2022/12/11 00:53:10;;;;;;;1.55;0.85;;;-0.60;99.90;;;;;;4424633;32;20090;-66
2022/12/11 00:55:38;;;;;;;0.55;0.55;;;-0.60;99.90;;;;;;4424880;32;20142;-67
2022/12/11 00:58:04;;;;;;;0.40;0.40;;;-0.70;99.90;;;;;;4426405;32;20056;-66
2022/12/11 01:00:29;;;;;;;0.80;0.80;;;-0.70;99.90;;;;;;4411421;32;20520;-66
2022/12/11 01:02:55;;;;;;;0.50;0.50;;;-0.60;99.90;;;;;;4422128;32;20528;-65
2022/12/11 01:05:20;;;;;;;0.60;0.60;;;-0.60;99.90;;;;;;4406044;32;20090;-66
2022/12/11 01:07:46;;;;;;;0.50;0.50;;;-0.50;99.90;;;;;;4415771;32;20082;-67
2022/12/11 01:10:27;;;;;;;0.50;0.50;;;-0.50;99.90;;;;;;4409021;32;20105;-67
2022/12/11 01:12:59;;;;;;;0.40;0.40;;;-0.60;99.90;;;;;;4411890;32;20324;-66
2022/12/11 01:15:27;;;;;;;0.60;0.60;;;-0.50;99.90;;;;;;4411526;32;20082;-67
2022/12/11 01:17:54;;;;;;;2.20;1.30;;;-0.60;99.90;;;;;;4425371;32;20081;-67
2022/12/11 01:20:21;;;;;;;0.60;0.60;;;-0.60;99.90;;;;;;4424946;32;20112;-66
2022/12/11 01:22:46;;;;;;;0.62;0.62;;;-0.60;99.90;;;;;;4424670;32;20065;-66
2022/12/11 01:25:12;;;;;;;0.47;0.47;;;-0.70;99.90;;;;;;4424558;32;20061;-67
2022/12/11 01:27:38;;;;;;;0.60;0.60;;;-0.60;99.90;;;;;;4413109;32;20065;-66
2022/12/11 01:30:06;;;;;;;1.12;1.02;;;-0.70;99.90;;;;;;4409544;32;20136;-67
2022/12/11 01:32:32;;;;;;;1.50;1.40;;;-0.70;99.90;;;;;;4409719;32;20094;-66
2022/12/11 01:34:58;;;;;;;0.77;0.77;;;-0.70;99.90;;;;;;4406574;32;20131;-63
2022/12/11 01:37:25;;;;;;;0.47;0.47;;;-0.70;99.90;;;;;;4413503;32;20107;-67
2022/12/11 01:39:50;;;;;;;0.65;0.65;;;-0.70;99.90;;;;;;4424654;32;20081;-66
2022/12/11 01:42:18;;;;;;;0.70;0.70;;;-0.60;99.90;;;;;;4424666;32;20097;-66
2022/12/11 01:44:46;;;;;;;0.40;0.40;;;-0.70;99.90;;;;;;4424587;32;20097;-66
2022/12/11 01:47:12;;;;;;;0.40;0.40;;;-0.70;99.90;;;;;;4422686;32;20400;-66
2022/12/11 01:49:39;;;;;;;0.50;0.50;;;-0.60;99.90;;;;;;4422462;32;20979;-66
2022/12/11 01:52:08;;;;;;;0.77;0.75;;;-0.70;99.90;;;;;;4410869;32;20655;-66
2022/12/11 01:54:34;;;;;;;1.03;1.03;;;-0.70;99.90;;;;;;4423675;32;20113;-67
2022/12/11 01:57:03;;;;;;;0.50;0.50;;;-0.70;99.90;;;;;;4423224;32;20520;-67
2022/12/11 01:59:33;;;;;;;3.00;2.08;;;-0.70;99.90;;;;;;4424599;32;20070;-67
2022/12/11 02:02:19;;;;;;;0.50;0.50;;;-0.60;99.90;;;;;;4416931;32;20563;-67
2022/12/11 02:04:46;;;;;;;0.45;0.45;;;-0.70;99.90;;;;;;4405109;32;20078;-65
2022/12/11 02:07:11;;;;;;;1.00;1.00;;;-0.80;99.90;;;;;;4401917;32;20049;-67
2022/12/11 02:09:40;;;;;;;0.45;0.45;;;-0.70;99.90;;;;;;4423973;32;20122;-67
2022/12/11 02:12:20;;;;;;;0.50;0.50;;;-0.70;99.90;;;;;;4422043;32;20078;-67
2022/12/11 02:14:52;;;;;;;0.80;0.80;;;-0.70;99.90;;;;;;4423320;32;20124;-64
2022/12/11 02:17:42;;;;;;;0.50;0.50;;;-0.80;99.90;;;;;;4421618;32;20092;-65
2022/12/11 02:20:13;;;;;;;0.70;0.70;;;-0.80;99.90;;;;;;4411073;32;20053;-64
2022/12/11 02:23:18;;;;;;;0.50;0.50;;;-0.80;99.90;;;;;;4410450;32;20826;-66
2022/12/11 02:26:05;;;;;;;0.60;0.60;;;-0.80;99.90;;;;;;4409086;32;20085;-66
2022/12/11 02:28:37;;;;;;;0.50;0.50;;;-0.70;99.90;;;;;;4420987;32;20078;-65
2022/12/11 02:31:12;;;;;;;0.80;0.80;;;-0.70;99.90;;;;;;4423851;32;20109;-64
2022/12/11 02:33:44;;;;;;;0.70;0.70;;;-0.80;99.90;;;;;;4415944;32;20065;-65
2022/12/11 02:36:13;;;;;;;0.68;0.68;;;-0.70;99.90;;;;;;4404033;32;20462;-65
2022/12/11 02:38:41;;;;;;;0.60;0.60;;;-0.70;99.90;;;;;;4421274;32;20111;-64
2022/12/11 02:41:10;;;;;;;0.60;0.60;;;-0.60;99.90;;;;;;4423311;32;20128;-65
2022/12/11 02:43:37;;;;;;;0.45;0.45;;;-0.60;99.90;;;;;;4422661;32;20223;-65
2022/12/11 02:46:06;;;;;;;0.50;0.50;;;-0.60;99.90;;;;;;4421489;32;20120;-67
2022/12/11 02:48:33;;;;;;;0.62;0.62;;;-0.50;99.90;;;;;;4422801;32;20145;-67
2022/12/11 02:50:59;;;;;;;0.50;0.50;;;-0.60;99.90;;;;;;4422102;32;20061;-64
2022/12/11 02:53:28;;;;;;;0.50;0.50;;;-0.70;99.90;;;;;;4423033;32;20120;-64
2022/12/11 02:56:07;;;;;;;1.37;1.33;;;-0.80;99.90;;;;;;4406563;32;20705;-66
2022/12/11 02:58:36;;;;;;;0.45;0.45;;;-0.60;99.90;;;;;;4421119;32;20105;-65
2022/12/11 03:01:01;;;;;;;0.40;0.40;;;-0.70;99.90;;;;;;4422539;32;20086;-65
2022/12/11 03:03:29;;;;;;;0.88;0.88;;;-0.70;99.90;;;;;;4416139;32;20085;-65
2022/12/11 03:05:55;;;;;;;0.40;0.40;;;-0.70;99.90;;;;;;4403682;32;20077;-65
2022/12/11 03:08:20;;;;;;;0.82;0.80;;;-0.80;99.90;;;;;;4418406;32;20090;-65
2022/12/11 03:10:46;;;;;;;0.95;0.82;;;-0.80;99.90;;;;;;4423198;32;20053;-65
2022/12/11 03:13:15;;;;;;;0.70;0.70;;;-0.80;99.90;;;;;;4422857;32;20204;-66
2022/12/11 03:15:53;;;;;;;0.40;0.40;;;-0.70;99.90;;;;;;4422744;32;20470;-65
2022/12/11 03:18:34;;;;;;;0.45;0.45;;;-0.80;99.90;;;;;;4424153;32;20089;-67
2022/12/11 03:21:25;;;;;;;0.50;0.50;;;-0.70;99.90;;;;;;4421457;32;20089;-66
2022/12/11 03:24:03;;;;;;;0.40;0.40;;;-0.80;99.90;;;;;;4412653;32;20096;-67
2022/12/11 03:26:34;;;;;;;0.70;0.70;;;-0.80;99.90;;;;;;4422400;32;20097;-67
2022/12/11 03:29:08;;;;;;;3.28;1.75;;;-0.70;99.90;;;;;;4423022;32;20054;-67
2022/12/11 03:31:43;;;;;;;0.82;0.82;;;-0.60;99.90;;;;;;4417059;32;20100;-66
2022/12/11 03:34:18;;;;;;;1.10;1.10;;;-0.60;99.90;;;;;;4397285;32;20073;-66
2022/12/11 03:36:46;;;;;;;0.60;0.60;;;-0.70;99.90;;;;;;4404278;32;20077;-67
2022/12/11 03:39:17;;;;;;;0.47;0.47;;;-0.70;99.90;;;;;;4414068;32;20093;-67
2022/12/11 03:41:44;;;;;;;0.82;0.82;;;-0.60;99.90;;;;;;4406843;32;20085;-67
2022/12/11 03:44:11;;;;;;;1.42;1.27;;;-0.60;99.90;;;;;;4409057;32;20085;-67
2022/12/11 03:46:39;;;;;;;0.40;0.40;;;-0.60;99.90;;;;;;4422345;32;20097;-65
2022/12/11 03:49:15;;;;;;;0.50;0.50;;;-0.70;99.90;;;;;;4422701;32;20127;-68
2022/12/11 03:51:41;;;;;;;0.50;0.50;;;-0.70;99.90;;;;;;4422470;32;20098;-67
2022/12/11 03:54:08;;;;;;;0.95;0.90;;;-0.60;99.90;;;;;;4421572;32;20078;-64
2022/12/11 03:56:37;;;;;;;0.80;0.80;;;-0.70;99.90;;;;;;4420720;32;20065;-67
2022/12/11 03:59:02;;;;;;;0.52;0.52;;;-0.60;99.90;;;;;;4422633;32;20089;-67
2022/12/11 04:01:28;;;;;;;5.85;1.60;;;-0.60;99.90;;;;;;4422750;32;20089;-67
2022/12/11 04:03:53;;;;;;;1.98;1.60;;;-0.70;99.90;;;;;;4412317;32;20089;-67
2022/12/11 04:06:19;;;;;;;0.50;0.50;;;-0.70;99.90;;;;;;4404358;32;20081;-66
2022/12/11 04:08:44;;;;;;;1.87;1.37;;;-0.70;99.90;;;;;;4421539;32;20073;-67
2022/12/11 04:11:41;;;;;;;0.60;0.60;;;-0.70;99.90;;;;;;4421396;32;20073;-67
2022/12/11 04:15:02;;;;;;;0.75;0.75;;;-0.70;99.90;;;;;;4410483;32;20120;-66
2022/12/11 04:16:41;;;;;;;0.50;0.50;;;-0.70;99.90;;;;;;4408825;32;20444;-66
2022/12/11 04:24:24;;;;;;;0.50;0.50;;;-0.70;99.90;;;;;;4397885;32;20082;-66
2022/12/11 04:24:39;;;;;;;1.02;1.02;;;-0.60;99.90;;;;;;4409722;32;20158;-67
2022/12/11 04:27:05;;;;;;;0.80;0.80;;;-0.50;99.90;;;;;;4422211;32;20064;-66
2022/12/11 04:29:30;;;;;;;0.50;0.50;;;-0.50;99.90;;;;;;4422814;32;20391;-66
2022/12/11 04:31:56;;;;;;;0.50;0.50;;;-0.60;99.90;;;;;;4422977;32;20073;-66
2022/12/11 04:34:21;;;;;;;0.47;0.47;;;-0.60;99.90;;;;;;4392520;32;20086;-64
2022/12/11 04:36:47;;;;;;;0.60;0.60;;;-0.60;99.90;;;;;;4394201;32;20086;-66
2022/12/11 04:39:12;;;;;;;0.65;0.65;;;-0.60;99.90;;;;;;4421086;32;20323;-66
2022/12/11 04:41:40;;;;;;;0.50;0.50;;;-0.60;99.90;;;;;;4421193;32;20128;-67
2022/12/11 04:44:06;;;;;;;0.60;0.60;;;-0.70;99.90;;;;;;4422970;32;20057;-66
2022/12/11 04:46:32;;;;;;;1.77;1.67;;;-0.70;99.90;;;;;;4421816;32;20081;-67
2022/12/11 04:48:59;;;;;;;0.40;0.40;;;-0.70;99.90;;;;;;4421290;32;20086;-66
2022/12/11 04:51:25;;;;;;;1.70;1.58;;;-0.70;99.90;;;;;;4421540;32;20073;-66
2022/12/11 04:53:51;;;;;;;0.80;0.80;;;-0.80;99.90;;;;;;4407924;32;20540;-66
2022/12/11 04:56:16;;;;;;;0.40;0.40;;;-0.80;99.90;;;;;;4408450;32;20114;-67
2022/12/11 04:58:43;;;;;;;0.75;0.73;;;-0.80;99.90;;;;;;4424967;32;20162;-67
2022/12/11 05:01:14;;;;;;;0.50;0.50;;;-0.90;99.90;;;;;;4420702;32;20580;-66
2022/12/11 05:03:40;;;;;;;1.48;1.37;;;-0.80;99.90;;;;;;4413337;32;20061;-65
2022/12/11 05:06:07;;;;;;;0.50;0.50;;;-0.80;99.90;;;;;;4393324;32;20676;-64
2022/12/11 05:08:35;;;;;;;0.50;0.50;;;-0.70;99.90;;;;;;4419482;32;20529;-67
2022/12/11 05:11:02;;;;;;;0.80;0.75;;;-0.80;99.90;;;;;;4421377;32;20089;-66
2022/12/11 05:13:28;;;;;;;0.90;0.90;;;-0.80;99.90;;;;;;4423283;32;20110;-66
2022/12/11 05:15:54;;;;;;;2.83;1.17;;;-0.80;99.90;;;;;;4421315;32;20085;-67
2022/12/11 05:18:20;;;;;;;0.88;0.88;;;-0.90;99.90;;;;;;4408450;32;20078;-67
2022/12/11 05:20:55;;;;;;;0.70;0.70;;;-0.90;99.90;;;;;;4421792;32;20470;-67
2022/12/11 05:23:21;;;;;;;0.75;0.75;;;-0.80;99.90;;;;;;4421411;32;20046;-67
2022/12/11 05:25:55;;;;;;;0.62;0.62;;;-0.70;99.90;;;;;;4420966;32;20081;-66
2022/12/11 05:28:21;;;;;;;0.75;0.75;;;-0.70;99.90;;;;;;4420111;32;20504;-67
2022/12/11 05:30:47;;;;;;;0.50;0.50;;;-0.70;99.90;;;;;;4420926;32;20153;-67
2022/12/11 05:33:12;;;;;;;0.60;0.60;;;-0.80;99.90;;;;;;4417523;32;20141;-67
2022/12/11 05:35:38;;;;;;;0.57;0.57;;;-0.70;99.90;;;;;;4404925;32;20093;-64
2022/12/11 05:38:03;;;;;;;0.50;0.50;;;-0.70;99.90;;;;;;4418059;32;20105;-66
2022/12/11 05:40:28;;;;;;;0.70;0.70;;;-0.70;99.90;;;;;;4425011;32;20077;-66
2022/12/11 05:42:54;;;;;;;1.17;1.02;;;-0.60;99.90;;;;;;4424336;32;20073;-66
2022/12/11 05:45:19;;;;;;;0.40;0.40;;;-0.60;99.90;;;;;;4422122;32;20140;-66
2022/12/11 05:47:45;;;;;;;0.68;0.68;;;-0.60;99.90;;;;;;4409409;32;20120;-67
2022/12/11 05:50:10;;;;;;;0.55;0.55;;;-0.60;99.90;;;;;;4421538;32;20066;-67
2022/12/11 05:52:36;;;;;;;0.50;0.50;;;-0.70;99.90;;;;;;4424593;32;20440;-67
2022/12/11 05:55:02;;;;;;;0.50;0.50;;;-0.60;99.90;;;;;;4424608;32;20150;-66
2022/12/11 05:57:27;;;;;;;3.47;2.10;;;-0.60;99.90;;;;;;4426096;32;20069;-65
2022/12/11 05:59:53;;;;;;;0.70;0.70;;;-0.70;99.90;;;;;;4424226;32;20097;-66
2022/12/11 06:02:18;;;;;;;0.68;0.68;;;-0.70;99.90;;;;;;4423808;32;20151;-66
2022/12/11 06:04:44;;;;;;;0.77;0.77;;;-0.60;99.90;;;;;;4405876;32;20092;-64
2022/12/11 06:07:09;;;;;;;0.75;0.75;;;-0.70;99.90;;;;;;4409978;32;20061;-66
2022/12/11 06:09:35;;;;;;;0.70;0.70;;;-0.70;99.90;;;;;;4422888;32;20469;-66
2022/12/11 06:12:00;;;;;;;0.52;0.52;;;-0.60;99.90;;;;;;4423881;32;20054;-66
2022/12/11 06:14:26;;;;;;;1.48;1.37;;;-0.60;99.90;;;;;;4424321;32;20084;-65
2022/12/11 06:16:51;;;;;;;2.10;1.77;;;-0.60;99.90;;;;;;4423451;32;20775;-66
2022/12/11 06:19:17;;;;;;;0.60;0.60;;;-0.60;99.90;;;;;;4422776;32;20128;-66
2022/12/11 06:21:43;;;;;;;0.60;0.60;;;-0.60;99.90;;;;;;4424770;32;20160;-66
2022/12/11 06:24:09;;;;;;;1.17;1.00;;;-0.50;99.90;;;;;;4423726;32;20519;-66
2022/12/11 06:26:35;;;;;;;0.90;0.90;;;-0.50;99.90;;;;;;4416520;32;20122;-66
2022/12/11 06:29:00;;;;;;;0.50;0.50;;;-0.50;99.90;;;;;;4424247;32;20105;-66
2022/12/11 06:31:26;;;;;;;0.50;0.50;;;-0.50;99.90;;;;;;4423605;32;20062;-66
2022/12/11 06:33:51;;;;;;;0.50;0.50;;;-0.30;99.90;;;;;;4412640;32;20430;-66
2022/12/11 06:36:20;;;;;;;0.50;0.50;;;-0.40;99.90;;;;;;4404961;32;20084;-65
2022/12/11 06:38:46;;;;;;;0.50;0.50;;;-0.40;99.90;;;;;;4408411;32;20109;-64
2022/12/11 06:41:13;;;;;;;0.40;0.40;;;-0.30;99.90;;;;;;4421532;32;20078;-66
2022/12/11 06:43:40;;;;;;;0.62;0.62;;;-0.40;99.90;;;;;;4422857;32;20061;-66
2022/12/11 06:46:07;;;;;;;0.40;0.40;;;-0.40;99.90;;;;;;4403472;32;20074;-65
2022/12/11 06:48:33;;;;;;;1.25;1.15;;;-0.40;99.90;;;;;;4423016;32;20106;-66
2022/12/11 06:50:58;;;;;;;0.52;0.52;;;-0.40;99.90;;;;;;4422790;32;20061;-66
2022/12/11 06:53:24;;;;;;;0.90;0.90;;;-0.40;99.90;;;;;;4423068;32;20118;-66
2022/12/11 06:55:49;;;;;;;0.85;0.85;;;-0.50;99.90;;;;;;4401855;32;20085;-66
2022/12/11 06:58:15;;;;;;;0.60;0.60;;;-0.40;99.90;;;;;;4424122;32;20556;-65
2022/12/11 07:00:41;;;;;;;1.40;1.30;;;-0.40;99.90;;;;;;4422630;32;20082;-65
2022/12/11 07:03:06;;;;;;;0.43;0.43;;;-0.30;99.90;;;;;;4418415;32;20170;-66
2022/12/11 07:05:32;;;;;;;0.50;0.50;;;-0.30;99.90;;;;;;4404425;32;20082;-64
2022/12/11 07:07:58;;;;;;;0.50;0.50;;;-0.40;99.90;;;;;;4414386;32;20103;-66
2022/12/11 07:10:24;;;;;;;0.65;0.65;;;-0.40;99.90;;;;;;4421975;32;20359;-66
2022/12/11 07:12:52;;;;;;;0.50;0.50;;;-0.30;99.90;;;;;;4422380;32;20097;-66
2022/12/11 07:15:17;;;;;;;0.50;0.50;;;-0.40;99.90;;;;;;4421749;32;20098;-65
2022/12/11 07:17:43;;;;;;;0.85;0.85;;;-0.40;99.90;;;;;;4421978;32;20255;-66
2022/12/11 07:20:09;;;;;;;0.68;0.68;;;-0.50;99.90;;;;;;4423231;32;20098;-66
2022/12/11 07:22:34;;;;;;;0.50;0.50;;;-0.60;99.90;;;;;;4424399;32;20069;-65
2022/12/11 07:25:00;;;;;;;0.70;0.70;;;-0.50;99.90;;;;;;4424560;32;20387;-66
2022/12/11 07:27:25;;;;;;;0.50;0.50;;;-0.60;99.90;;;;;;4425256;32;20062;-65
2022/12/11 07:29:51;;;;;;;5.37;2.22;;;-0.60;99.90;;;;;;4422946;32;20104;-65
2022/12/11 07:32:16;;;;;;;0.40;0.40;;;-0.50;99.90;;;;;;4420487;32;84637;-67
2022/12/11 07:34:42;;;;;;;0.50;0.50;;;-0.60;99.90;;;;;;4389611;32;20058;-66
2022/12/11 07:37:07;;;;;;;1.02;1.02;;;-0.50;99.90;;;;;;4407684;32;20074;-71
2022/12/11 07:39:33;;;;;;;0.70;0.70;;;-0.50;99.90;;;;;;4421176;32;20094;-66
2022/12/11 07:41:59;;;;;;;0.50;0.50;;;-0.60;99.90;;;;;;4424143;32;20065;-67
2022/12/11 07:44:24;;;;;;;0.88;0.88;;;-0.50;99.90;;;;;;4421914;32;20409;-65
2022/12/11 07:46:50;;;;;;;0.52;0.52;;;-0.40;99.90;;;;;;4421525;32;20149;-66
2022/12/11 07:49:15;;;;;;;0.80;0.80;;;-0.40;99.90;;;;;;4420266;32;20089;-64
2022/12/11 07:51:41;;;;;;;0.50;0.50;;;-0.50;99.90;;;;;;4421784;32;20073;-66
2022/12/11 07:54:13;;;;;;;1.02;1.02;;;-0.50;99.90;;;;;;4419763;32;20093;-66
2022/12/11 07:56:39;;;;;;;0.75;0.75;;;-0.60;99.90;;;;;;4409471;32;20073;-66
2022/12/11 07:59:05;;;;;;;0.68;0.68;;;-0.60;99.90;;;;;;4422955;32;20069;-65
2022/12/11 08:01:34;;;;;;;0.60;0.60;;;-0.60;99.90;;;;;;4421110;32;20057;-66
2022/12/11 08:04:00;;;;;;;0.40;0.40;;;-0.70;99.90;;;;;;4410633;32;20085;-64
2022/12/11 08:06:29;;;;;;;0.73;0.73;;;-0.70;99.90;;;;;;4406501;32;20133;-65
2022/12/11 08:08:55;;;;;;;0.70;0.70;;;-0.50;99.90;;;;;;4419858;32;20066;-65
2022/12/11 08:11:21;;;;;;;2.10;0.82;;;-0.50;99.90;;;;;;4422355;32;20076;-65
2022/12/11 08:13:46;;;;;;;0.50;0.50;;;-0.50;99.90;;;;;;4407465;32;20096;-66
2022/12/11 08:16:13;;;;;;;1.05;1.05;;;-0.40;99.90;;;;;;4421919;32;20809;-66
2022/12/11 08:18:40;;;;;;;0.60;0.60;;;-0.50;99.90;;;;;;4421728;32;20090;-65
2022/12/11 08:21:07;;;;;;;0.65;0.65;;;-0.50;99.90;;;;;;4421514;32;20073;-65
2022/12/11 08:23:33;;;;;;;0.60;0.60;;;-0.50;99.90;;;;;;4422495;32;20081;-66
2022/12/11 08:26:00;;;;;;;3.35;1.70;;;-0.50;99.90;;;;;;4422008;32;20097;-65
2022/12/11 08:28:26;;;;;;;1.02;0.98;;;-0.30;99.90;;;;;;4421441;32;20081;-65
2022/12/11 08:30:51;;;;;;;0.40;0.40;;;-0.40;99.90;;;;;;4420037;32;20182;-68
2022/12/11 08:33:17;;;;;;;2.47;1.98;;;-0.40;99.90;;;;;;4414495;32;20520;-64
2022/12/11 08:35:44;;;;;;;0.45;0.45;;;-0.40;99.90;;;;;;4404667;32;20144;-65
2022/12/11 08:38:09;;;;;;;0.40;0.40;;;-0.40;99.90;;;;;;4416457;32;20086;-65
2022/12/11 08:40:34;;;;;;;0.60;0.60;;;-0.50;99.90;;;;;;4422106;32;20097;-66
2022/12/11 08:43:00;;;;;;;0.70;0.70;;;-0.50;99.90;;;;;;4422451;32;20086;-67
2022/12/11 08:45:26;;;;;;;1.00;0.95;;;-0.40;99.90;;;;;;4421663;32;20512;-66
2022/12/11 08:47:52;;;;;;;0.73;0.73;;;-0.50;99.90;;;;;;4421850;32;20134;-66
2022/12/11 08:50:18;;;;;;;0.47;0.47;;;-0.40;99.90;;;;;;4422767;32;20251;-66
2022/12/11 08:52:43;;;;;;;0.50;0.50;;;-0.40;99.90;;;;;;4422903;32;20473;-65
2022/12/11 08:55:09;;;;;;;0.52;0.52;;;-0.40;99.90;;;;;;4417503;32;20512;-65
2022/12/11 08:57:34;;;;;;;1.55;0.98;;;-0.40;99.90;;;;;;4421092;32;20131;-66
2022/12/11 09:00:00;;;;;;;0.50;0.50;;;-0.50;99.90;;;;;;4421192;32;20111;-65
2022/12/11 09:02:25;;;;;;;0.50;0.50;;;-0.50;99.90;;;;;;4418750;32;20077;-65
2022/12/11 09:04:51;;;;;;;0.47;0.47;;;-0.50;99.90;;;;;;4403137;32;20089;-66
2022/12/11 09:07:16;;;;;;;0.50;0.50;;;-0.40;99.90;;;;;;4412962;32;20058;-67
2022/12/11 09:09:42;;;;;;;0.55;0.55;;;-0.40;99.90;;;;;;4424463;32;20652;-67
2022/12/11 09:12:07;;;;;;;0.40;0.40;;;-0.30;99.90;;;;;;4424520;32;20073;-67
2022/12/11 09:14:33;;;;;;;1.00;0.93;;;-0.40;99.90;;;;;;4423605;32;20081;-67
2022/12/11 09:16:58;;;;;;;4.12;1.48;;;-0.30;99.90;;;;;;4423666;32;20074;-66
2022/12/11 09:19:23;;;;;;;0.62;0.62;;;-0.30;99.90;;;;;;4423150;32;20073;-66
2022/12/11 09:21:49;;;;;;;0.40;0.40;;;-0.20;99.90;;;;;;4424477;32;20077;-66
2022/12/11 09:24:14;;;;;;;0.60;0.60;;;-0.30;99.90;;;;;;4425941;32;20101;-66
2022/12/11 09:26:40;;;;;;;0.50;0.50;;;-0.30;99.90;;;;;;4422317;32;20481;-66
2022/12/11 09:29:06;;;;;;;0.80;0.80;;;-0.30;99.90;;;;;;4409824;32;20077;-65
2022/12/11 09:31:35;;;;;;;0.77;0.77;;;-0.10;99.90;;;;;;4409119;32;20520;-66
2022/12/11 09:34:04;;;;;;;0.50;0.50;;;-0.20;99.90;;;;;;4383478;32;20153;-64
2022/12/11 09:36:30;;;;;;;0.55;0.55;;;-0.20;99.90;;;;;;4391620;32;20136;-64
2022/12/11 09:39:00;;;;;;;0.65;0.65;;;-0.20;99.90;;;;;;4423935;32;20070;-66
2022/12/11 09:41:35;;;;;;;4.15;2.30;;;-0.20;99.90;;;;;;4422136;32;20065;-63
2022/12/11 09:44:22;;;;;;;0.68;0.68;;;-0.20;99.90;;;;;;4423720;32;20061;-65
2022/12/11 09:46:48;;;;;;;0.50;0.50;;;-0.20;99.90;;;;;;4411768;32;20104;-66
2022/12/11 09:49:38;;;;;;;0.45;0.45;;;-0.20;99.90;;;;;;4420977;32;20227;-65
2022/12/11 09:52:14;;;;;;;0.50;0.50;;;-0.20;99.90;;;;;;4412437;32;20104;-67
2022/12/11 09:54:53;;;;;;;0.60;0.60;;;-0.20;99.90;;;;;;4422898;32;20460;-67
2022/12/11 09:57:39;;;;;;;1.12;1.05;;;-0.20;99.90;;;;;;4412022;32;20213;-67
2022/12/11 10:00:16;;;;;;;0.40;0.40;;;-0.20;99.90;;;;;;4410060;32;20690;-67
2022/12/11 10:03:07;;;;;;;0.50;0.50;;;-0.20;99.90;;;;;;4421940;32;20090;-66
2022/12/11 10:05:57;;;;;;;0.50;0.50;;;-0.20;99.90;;;;;;4393191;32;20241;-66
2022/12/11 10:08:35;;;;;;;0.50;0.50;;;-0.20;99.90;;;;;;4403340;32;20098;-66
2022/12/11 10:11:09;;;;;;;1.02;1.02;;;-0.10;99.90;;;;;;4415418;32;20093;-66
2022/12/11 10:13:53;;;;;;;0.40;0.40;;;-0.20;99.90;;;;;;4423872;32;20427;-67
2022/12/11 10:16:38;;;;;;;0.40;0.40;;;-0.30;99.90;;;;;;4421343;32;20089;-67
2022/12/11 10:19:05;;;;;;;0.70;0.70;;;-0.10;99.90;;;;;;4423860;32;20086;-65
2022/12/11 10:21:39;;;;;;;0.50;0.50;;;-0.10;99.90;;;;;;4408537;32;20556;-66
2022/12/11 10:24:15;;;;;;;0.73;0.73;;;-0.10;99.90;;;;;;4422663;32;20081;-67
2022/12/11 10:26:40;;;;;;;0.40;0.40;;;0.00;99.90;;;;;;4423305;32;20069;-67
2022/12/11 10:29:13;;;;;;;0.45;0.45;;;0.00;99.90;;;;;;4406981;32;20540;-67
2022/12/11 10:31:53;;;;;;;0.75;0.75;;;-0.10;99.90;;;;;;4406648;32;20086;-67
2022/12/11 10:34:38;;;;;;;0.50;0.50;;;-0.10;99.90;;;;;;4408549;32;20524;-66
2022/12/11 10:37:04;;;;;;;0.50;0.50;;;-0.10;99.90;;;;;;4404556;32;20147;-67
2022/12/11 10:39:29;;;;;;;0.50;0.50;;;-0.10;99.90;;;;;;4417758;32;20086;-65
2022/12/11 10:41:55;;;;;;;0.43;0.43;;;-0.10;99.90;;;;;;4418325;32;20134;-66
2022/12/11 10:44:25;;;;;;;1.45;0.75;;;-0.20;99.90;;;;;;4418528;32;20092;-66
2022/12/11 10:47:11;;;;;;;0.50;0.50;;;-0.20;99.90;;;;;;4406066;32;20158;-65
2022/12/11 10:49:42;;;;;;;0.40;0.40;;;-0.10;99.90;;;;;;4404537;32;20322;-66
2022/12/11 10:52:19;;;;;;;0.50;0.50;;;-0.20;99.90;;;;;;4421308;32;20859;-66
2022/12/11 10:54:51;;;;;;;0.93;0.93;;;-0.10;99.90;;;;;;4407531;32;20411;-66
2022/12/11 10:57:27;;;;;;;0.40;0.40;;;-0.10;99.90;;;;;;4421574;32;20093;-66
2022/12/11 10:59:54;;;;;;;0.50;0.50;;;-0.20;99.90;;;;;;4422291;32;20102;-66
2022/12/11 11:02:27;;;;;;;0.40;0.40;;;-0.40;99.90;;;;;;4421355;32;20206;-67
2022/12/11 11:04:54;;;;;;;0.40;0.40;;;-0.40;99.90;;;;;;4404929;32;20562;-65
2022/12/11 11:07:23;;;;;;;0.60;0.60;;;-0.40;99.90;;;;;;4412051;32;20101;-67
2022/12/11 11:09:53;;;;;;;0.50;0.50;;;-0.30;99.90;;;;;;4420920;32;20187;-66
2022/12/11 11:12:25;;;;;;;0.60;0.60;;;-0.20;99.90;;;;;;4421497;32;20524;-66
2022/12/11 11:15:00;;;;;;;0.52;0.52;;;-0.20;99.90;;;;;;4421729;32;20065;-66
2022/12/11 11:17:26;;;;;;;0.85;0.85;;;-0.10;99.90;;;;;;4421747;32;20084;-67
2022/12/11 11:19:51;;;;;;;0.80;0.80;;;0.00;99.90;;;;;;4421003;32;20601;-67
2022/12/11 11:22:18;;;;;;;0.50;0.50;;;-0.10;99.90;;;;;;4421801;32;20136;-66
2022/12/11 11:24:52;;;;;;;0.40;0.40;;;-0.20;99.90;;;;;;4421255;32;20135;-65
2022/12/11 11:27:29;;;;;;;0.40;0.40;;;-0.20;99.90;;;;;;4421207;32;20061;-65
2022/12/11 11:30:00;;;;;;;0.77;0.77;;;-0.10;99.90;;;;;;4407962;32;20147;-66
2022/12/11 11:32:32;;;;;;;0.57;0.57;;;-0.20;99.90;;;;;;4419045;32;20062;-65
2022/12/11 11:35:23;;;;;;;0.40;0.40;;;-0.10;99.90;;;;;;4403615;32;20070;-67
2022/12/11 11:38:14;;;;;;;0.40;0.40;;;0.00;99.90;;;;;;4405206;32;20077;-67
2022/12/11 11:40:48;;;;;;;0.50;0.50;;;0.00;99.90;;;;;;4409352;32;20821;-67
2022/12/11 11:43:42;;;;;;;0.68;0.62;;;-0.10;99.90;;;;;;4422307;32;20118;-67
2022/12/11 11:46:16;;;;;;;0.57;0.57;;;0.00;99.90;;;;;;4421503;32;20090;-66
2022/12/11 11:49:06;;;;;;;0.60;0.60;;;0.00;99.90;;;;;;4406924;32;20162;-66
2022/12/11 11:51:38;;;;;;;1.67;1.05;;;0.00;99.90;;;;;;4410709;32;20057;-66
2022/12/11 11:54:32;;;;;;;0.60;0.60;;;0.00;99.90;;;;;;4423369;32;20126;-66
2022/12/11 11:57:00;;;;;;;0.40;0.40;;;0.00;99.90;;;;;;4394587;32;20069;-67
2022/12/11 11:59:33;;;;;;;0.45;0.45;;;0.10;99.90;;;;;;4409640;32;20097;-66
2022/12/11 12:01:59;;;;;;;0.40;0.40;;;-0.10;99.90;;;;;;4419449;32;20078;-66
2022/12/11 12:04:31;;;;;;;0.68;0.68;;;-0.10;99.90;;;;;;4393608;32;20149;-65
2022/12/11 12:07:14;;;;;;;0.85;0.85;;;-0.20;99.90;;;;;;4404349;32;20098;-66
2022/12/11 12:10:05;;;;;;;0.50;0.50;;;-0.20;99.90;;;;;;4421267;32;20061;-67
2022/12/11 12:12:52;;;;;;;0.82;0.82;;;-0.20;99.90;;;;;;4417111;32;20065;-67
2022/12/11 12:15:39;;;;;;;1.35;1.08;;;-0.10;99.90;;;;;;4409016;32;20076;-66
2022/12/11 12:18:18;;;;;;;0.40;0.40;;;0.00;99.90;;;;;;4408436;32;20092;-66
2022/12/11 12:21:13;;;;;;;0.50;0.50;;;-0.10;99.90;;;;;;4420537;32;20105;-66
2022/12/11 12:24:19;;;;;;;0.57;0.57;;;-0.20;99.90;;;;;;4409168;32;20104;-66
2022/12/11 12:26:59;;;;;;;0.80;0.80;;;-0.10;99.90;;;;;;4410941;32;20230;-66
2022/12/11 12:29:43;;;;;;;0.93;0.93;;;-0.10;99.90;;;;;;4407655;32;20382;-65
2022/12/11 12:32:24;;;;;;;0.40;0.40;;;0.00;99.90;;;;;;4407686;32;20164;-66
2022/12/11 12:35:16;;;;;;;0.50;0.50;;;0.00;99.90;;;;;;4400922;32;20232;-66
2022/12/11 12:38:21;;;;;;;0.62;0.62;;;0.00;99.90;;;;;;4399954;32;20101;-66
2022/12/11 12:41:14;;;;;;;0.40;0.40;;;0.00;99.90;;;;;;4412730;32;20090;-65
2022/12/11 12:44:12;;;;;;;0.55;0.55;;;-0.20;99.90;;;;;;4415604;32;20140;-66
2022/12/11 12:47:03;;;;;;;0.50;0.50;;;-0.10;99.90;;;;;;4410254;32;20568;-67
2022/12/11 12:49:34;;;;;;;1.85;0.70;;;-0.10;99.90;;;;;;4427626;32;20100;-67
2022/12/11 12:52:01;;;;;;;0.40;0.40;;;-0.10;99.90;;;;;;4426586;32;20089;-67
2022/12/11 12:54:29;;;;;;;0.40;0.40;;;-0.10;99.90;;;;;;4426170;32;20077;-67
2022/12/11 12:56:57;;;;;;;0.62;0.62;;;-0.20;99.90;;;;;;4425541;32;20077;-67
2022/12/11 12:59:25;;;;;;;0.45;0.45;;;-0.10;99.90;;;;;;4426021;32;20081;-67
2022/12/11 13:01:55;;;;;;;0.70;0.70;;;0.00;99.90;;;;;;4424963;32;20097;-66
2022/12/11 13:04:38;;;;;;;;;;;0.00;99.90;;;;;;4410795;32;20637;-65
2022/12/11 13:07:25;;;;;;;0.50;0.50;;;0.00;99.90;;;;;;4412431;32;19974;-66